createdAt,value
2018-11-04T00:02:22.447Z,6.00
2018-11-04T00:04:50.954Z,5.10
2018-11-04T00:07:19.467Z,5.40
2018-11-04T00:09:47.991Z,5.67
2018-11-04T00:12:16.491Z,5.60
2018-11-04T00:14:45.015Z,4.90
2018-11-04T00:17:13.577Z,5.97
2018-11-04T00:19:42.069Z,6.43
2018-11-04T00:22:10.562Z,5.10
2018-11-04T00:24:39.078Z,4.63
2018-11-04T00:27:07.638Z,5.43
2018-11-04T00:29:36.170Z,5.37
2018-11-04T00:32:04.798Z,5.87
2018-11-04T00:34:33.343Z,5.50
2018-11-04T00:37:01.824Z,5.27
2018-11-04T00:39:30.344Z,5.97
2018-11-04T00:41:59.196Z,6.40
2018-11-04T00:44:27.702Z,6.50
2018-11-04T00:46:56.239Z,5.97
2018-11-04T00:49:24.751Z,6.83
2018-11-04T00:51:53.262Z,6.33
2018-11-04T00:54:21.794Z,5.13
2018-11-04T00:56:50.306Z,5.00
2018-11-04T00:59:18.791Z,4.90
2018-11-04T01:01:48.177Z,5.10
2018-11-04T01:04:17.193Z,5.97
2018-11-04T01:06:45.890Z,4.40
2018-11-04T01:09:15.459Z,4.37
2018-11-04T01:11:43.905Z,4.57
2018-11-04T01:14:12.398Z,4.50
2018-11-04T01:16:40.933Z,3.83
2018-11-04T01:19:09.512Z,3.40
2018-11-04T01:21:38.025Z,3.27
2018-11-04T01:24:06.534Z,3.80
2018-11-04T01:26:35.031Z,4.13
2018-11-04T01:29:03.567Z,4.10
2018-11-04T01:31:32.091Z,4.80
2018-11-04T01:34:01.679Z,14.47
2018-11-04T01:36:30.174Z,25.33
2018-11-04T01:38:59.181Z,14.20
2018-11-04T01:41:27.788Z,11.10
2018-11-04T01:43:56.304Z,6.67
2018-11-04T01:46:24.783Z,4.70
2018-11-04T01:48:54.202Z,5.00
2018-11-04T01:51:22.822Z,4.40
2018-11-04T01:53:51.315Z,4.37
2018-11-04T01:56:19.813Z,3.60
2018-11-04T01:58:48.323Z,3.40
2018-11-04T02:01:16.819Z,2.93
2018-11-04T02:03:45.321Z,3.67
2018-11-04T02:06:13.819Z,3.80
2018-11-04T02:08:42.326Z,3.83
2018-11-04T02:11:10.826Z,3.83
2018-11-04T02:13:39.320Z,3.80
2018-11-04T02:16:07.864Z,3.67
2018-11-04T02:18:36.391Z,4.90
2018-11-04T02:21:05.454Z,4.53
2018-11-04T02:23:33.954Z,3.97
2018-11-04T02:26:02.486Z,3.83
2018-11-04T02:28:30.996Z,3.80
2018-11-04T02:30:59.495Z,4.63
2018-11-04T02:33:28.126Z,4.20
2018-11-04T02:35:56.659Z,4.20
2018-11-04T02:38:25.167Z,5.10
2018-11-04T02:40:53.698Z,4.23
2018-11-04T02:43:22.212Z,4.27
2018-11-04T02:45:50.686Z,4.97
2018-11-04T02:48:19.197Z,5.23
2018-11-04T02:50:47.725Z,5.20
2018-11-04T02:53:16.222Z,5.77
2018-11-04T02:55:44.735Z,4.67
2018-11-04T02:58:13.242Z,4.60
2018-11-04T03:00:41.800Z,3.83
2018-11-04T03:03:10.338Z,4.20
2018-11-04T03:05:38.838Z,4.10
2018-11-04T03:08:07.346Z,4.80
2018-11-04T03:10:35.854Z,3.87
2018-11-04T03:13:04.650Z,3.97
2018-11-04T03:15:33.147Z,4.33
2018-11-04T03:18:01.779Z,5.10
2018-11-04T03:20:30.307Z,4.33
2018-11-04T03:22:58.819Z,5.30
2018-11-04T03:25:27.330Z,4.33
2018-11-04T03:27:55.866Z,5.03
2018-11-04T03:30:24.354Z,4.13
2018-11-04T03:32:52.867Z,4.67
2018-11-04T03:35:21.375Z,5.37
2018-11-04T03:37:49.899Z,4.97
2018-11-04T03:40:18.421Z,5.33
2018-11-04T03:42:47.045Z,5.07
2018-11-04T03:45:15.543Z,4.97
2018-11-04T03:47:44.326Z,5.90
2018-11-04T03:50:13.271Z,5.63
2018-11-04T03:52:42.430Z,5.53
2018-11-04T03:55:10.932Z,6.57
2018-11-04T03:57:39.451Z,7.23
2018-11-04T04:00:11.099Z,6.23
2018-11-04T04:02:39.962Z,6.17
2018-11-04T04:05:09.378Z,5.73
2018-11-04T04:07:37.926Z,5.53
2018-11-04T04:10:07.278Z,6.27
2018-11-04T04:12:35.948Z,4.73
2018-11-04T04:15:05.279Z,4.80
2018-11-04T04:17:33.783Z,4.53
2018-11-04T04:20:02.355Z,5.60
2018-11-04T04:22:30.869Z,4.67
2018-11-04T04:24:59.378Z,3.97
2018-11-04T04:27:28.171Z,4.73
2018-11-04T04:29:56.710Z,4.27
2018-11-04T04:32:25.250Z,5.80
2018-11-04T04:34:53.754Z,5.70
2018-11-04T04:37:22.241Z,5.40
2018-11-04T04:39:50.750Z,4.10
2018-11-04T04:42:19.239Z,5.07
2018-11-04T04:44:48.440Z,4.90
2018-11-04T04:47:16.961Z,5.10
2018-11-04T04:49:45.531Z,4.80
2018-11-04T04:52:14.004Z,5.63
2018-11-04T04:54:42.525Z,4.53
2018-11-04T04:57:11.014Z,5.53
2018-11-04T04:59:39.510Z,5.10
2018-11-04T05:02:08.860Z,4.30
2018-11-04T05:04:37.378Z,4.00
2018-11-04T05:07:05.953Z,4.37
2018-11-04T05:09:34.467Z,3.80
2018-11-04T05:12:03.019Z,4.03
2018-11-04T05:14:31.535Z,5.03
2018-11-04T05:17:00.028Z,4.90
2018-11-04T05:19:28.533Z,3.80
2018-11-04T05:21:57.042Z,4.10
2018-11-04T05:24:25.570Z,5.60
2018-11-04T05:26:54.063Z,5.00
2018-11-04T05:29:22.535Z,6.13
2018-11-04T05:31:51.058Z,6.03
2018-11-04T05:34:24.910Z,5.83
2018-11-04T05:36:53.694Z,6.97
2018-11-04T05:39:22.214Z,6.07
2018-11-04T05:41:50.734Z,6.40
2018-11-04T05:44:19.206Z,5.20
2018-11-04T05:46:47.718Z,6.50
2018-11-04T05:49:16.227Z,5.57
2018-11-04T05:51:44.734Z,6.87
2018-11-04T05:54:13.227Z,7.37
2018-11-04T05:56:41.718Z,6.50
2018-11-04T05:59:10.215Z,7.03
2018-11-04T06:01:38.734Z,5.80
2018-11-04T06:04:07.359Z,6.10
2018-11-04T06:06:35.850Z,6.00
2018-11-04T06:09:06.975Z,5.70
2018-11-04T06:11:35.950Z,8.10
2018-11-04T06:14:07.067Z,6.50
2018-11-04T06:16:35.548Z,6.30
2018-11-04T06:19:04.078Z,5.40
2018-11-04T06:21:32.566Z,6.43
2018-11-04T06:24:02.318Z,5.80
2018-11-04T06:26:30.806Z,7.30
2018-11-04T06:29:00.217Z,6.20
2018-11-04T06:31:28.710Z,6.33
2018-11-04T06:33:57.272Z,6.37
2018-11-04T06:36:25.867Z,7.33
2018-11-04T06:38:54.362Z,6.63
2018-11-04T06:41:23.032Z,7.90
2018-11-04T06:49:36.581Z,6.23
2018-11-04T06:52:10.866Z,8.20
2018-11-04T06:54:39.375Z,8.20
2018-11-04T06:57:07.919Z,8.47
2018-11-04T06:59:36.859Z,7.90
2018-11-04T07:02:06.277Z,8.10
2018-11-04T07:04:34.755Z,8.63
2018-11-04T07:07:03.333Z,9.97
2018-11-04T07:09:31.832Z,11.37
2018-11-04T07:12:00.349Z,11.57
2018-11-04T07:14:28.839Z,9.37
2018-11-04T07:16:57.347Z,9.57
2018-11-04T07:19:25.844Z,9.97
2018-11-04T07:21:54.327Z,10.10
2018-11-04T07:24:22.827Z,10.93
2018-11-04T07:26:51.447Z,10.60
2018-11-04T07:29:19.936Z,10.80
2018-11-04T07:31:48.542Z,10.90
2018-11-04T07:34:17.015Z,9.80
2018-11-04T07:36:45.517Z,9.60
2018-11-04T07:39:14.323Z,9.40
2018-11-04T07:41:42.815Z,9.93
2018-11-04T07:44:11.389Z,9.40
2018-11-04T07:46:39.870Z,10.63
2018-11-04T07:49:11.305Z,9.40
2018-11-04T07:51:39.983Z,9.60
2018-11-04T07:54:08.327Z,9.07
2018-11-04T07:56:36.810Z,9.43
2018-11-04T07:59:05.542Z,9.17
2018-11-04T08:01:34.061Z,9.97
2018-11-04T08:04:02.815Z,10.57
2018-11-04T08:06:31.238Z,8.90
2018-11-04T08:09:01.251Z,9.40
2018-11-04T08:11:29.770Z,9.87
2018-11-04T08:13:58.543Z,9.27
2018-11-04T08:16:27.043Z,13.17
2018-11-04T08:18:55.539Z,15.47
2018-11-04T08:21:24.102Z,14.20
2018-11-04T08:23:52.563Z,15.00
2018-11-04T08:26:21.051Z,13.60
2018-11-04T08:28:49.559Z,15.63
2018-11-04T08:31:18.103Z,16.40
2018-11-04T08:33:46.599Z,17.20
2018-11-04T08:36:15.098Z,17.00
2018-11-04T08:38:43.575Z,19.27
2018-11-04T08:41:12.125Z,19.97
2018-11-04T08:43:40.631Z,20.47
2018-11-04T08:46:09.139Z,20.87
2018-11-04T08:48:37.678Z,27.10
2018-11-04T08:51:06.473Z,26.53
2018-11-04T08:53:35.002Z,27.53
2018-11-04T08:56:03.655Z,29.43
2018-11-04T08:58:32.549Z,31.80
2018-11-04T09:01:01.049Z,33.57
2018-11-04T09:03:29.598Z,33.40
2018-11-04T09:05:58.098Z,33.63
2018-11-04T09:08:26.603Z,32.20
2018-11-04T09:10:55.118Z,33.80
2018-11-04T09:13:23.627Z,34.43
2018-11-04T09:15:52.131Z,33.30
2018-11-04T09:18:20.650Z,36.97
2018-11-04T09:20:49.694Z,39.10
2018-11-04T09:23:18.213Z,36.83
2018-11-04T09:25:46.763Z,38.87
2018-11-04T09:28:15.278Z,35.47
2018-11-04T09:30:43.803Z,36.20
2018-11-04T09:33:12.295Z,33.57
2018-11-04T09:35:40.937Z,32.80
2018-11-04T09:38:09.390Z,35.63
2018-11-04T09:40:37.931Z,32.77
2018-11-04T09:43:06.454Z,34.90
2018-11-04T09:45:34.966Z,35.20
2018-11-04T09:48:03.534Z,32.77
2018-11-04T09:50:32.038Z,32.23
2018-11-04T09:53:00.567Z,33.40
2018-11-04T09:55:29.062Z,30.10
2018-11-04T09:57:57.579Z,31.20
2018-11-04T10:00:26.102Z,32.93
2018-11-04T10:02:54.590Z,31.80
2018-11-04T10:05:23.411Z,31.57
2018-11-04T10:07:51.904Z,34.43
2018-11-04T10:10:20.423Z,31.87
2018-11-04T10:12:48.942Z,32.43
2018-11-04T10:15:17.438Z,31.27
2018-11-04T10:17:45.978Z,28.47
2018-11-04T10:20:14.751Z,29.90
2018-11-04T10:22:43.221Z,26.70
2018-11-04T10:25:12.810Z,32.60
2018-11-04T10:27:42.150Z,28.23
2018-11-04T10:30:13.284Z,28.13
2018-11-04T10:32:41.766Z,30.93
2018-11-04T10:35:10.779Z,28.53
2018-11-04T10:37:39.871Z,31.57
2018-11-04T10:40:09.498Z,31.70
2018-11-04T10:42:38.029Z,31.30
2018-11-04T10:45:07.547Z,32.60
2018-11-04T10:47:36.046Z,34.07
2018-11-04T10:50:05.194Z,33.57
2018-11-04T10:52:33.645Z,31.63
2018-11-04T10:55:02.242Z,34.30
2018-11-04T10:57:31.223Z,32.97
2018-11-04T10:59:59.732Z,34.30
2018-11-04T11:02:29.063Z,32.17
2018-11-04T11:04:57.657Z,37.63
2018-11-04T11:07:26.154Z,36.27
2018-11-04T11:09:54.669Z,32.70
2018-11-04T11:12:23.170Z,31.00
2018-11-04T11:14:51.681Z,33.30
2018-11-04T11:17:20.190Z,35.50
2018-11-04T11:19:48.690Z,35.27
2018-11-04T11:22:17.178Z,31.23
2018-11-04T11:24:46.267Z,33.80
2018-11-04T11:27:14.794Z,31.33
2018-11-04T11:29:43.314Z,31.90
2018-11-04T11:32:11.968Z,34.70
2018-11-04T11:34:40.506Z,35.33
2018-11-04T11:37:09.110Z,34.67
2018-11-04T11:39:37.635Z,35.17
2018-11-04T11:42:06.143Z,32.40
2018-11-04T11:44:34.651Z,30.43
2018-11-04T11:47:03.787Z,35.10
2018-11-04T11:49:32.332Z,34.17
2018-11-04T11:52:00.836Z,33.07
2018-11-04T11:54:29.374Z,32.23
2018-11-04T11:56:58.255Z,33.03
2018-11-04T11:59:27.503Z,34.20
2018-11-04T12:01:55.947Z,32.43
2018-11-04T12:04:24.457Z,34.80
2018-11-04T12:06:52.981Z,35.40
2018-11-04T12:09:21.482Z,36.43
2018-11-04T12:11:50.313Z,38.00
2018-11-04T12:14:18.813Z,41.30
2018-11-04T12:16:47.327Z,38.10
2018-11-04T12:22:08.927Z,37.10
2018-11-04T12:24:37.475Z,36.13
2018-11-04T12:27:06.195Z,34.23
2018-11-04T12:29:34.874Z,37.53
2018-11-04T12:32:03.415Z,39.60
2018-11-04T12:34:32.053Z,38.13
2018-11-04T12:37:00.574Z,36.67
2018-11-04T12:39:29.091Z,38.10
2018-11-04T12:41:57.607Z,39.67
2018-11-04T12:44:26.142Z,35.97
2018-11-04T12:46:54.659Z,36.13
2018-11-04T12:49:25.466Z,38.03
2018-11-04T12:51:53.954Z,35.70
2018-11-04T12:54:22.466Z,39.47
2018-11-04T12:56:50.974Z,41.33
2018-11-04T12:59:19.455Z,43.03
2018-11-04T13:01:48.001Z,43.40
2018-11-04T13:04:16.507Z,42.10
2018-11-04T13:06:45.055Z,45.00
2018-11-04T13:09:13.570Z,41.27
2018-11-04T13:14:34.521Z,40.50
2018-11-04T13:17:03.211Z,37.47
2018-11-04T13:19:31.698Z,38.67
2018-11-04T13:22:00.218Z,38.13
2018-11-04T13:24:28.718Z,37.40
2018-11-04T13:26:57.390Z,39.00
2018-11-04T13:29:25.795Z,40.53
2018-11-04T13:31:54.298Z,39.07
2018-11-04T13:34:22.807Z,40.27
2018-11-04T13:36:51.454Z,37.90
2018-11-04T13:39:19.994Z,39.80
2018-11-04T13:41:48.547Z,44.00
2018-11-04T13:44:17.079Z,43.37
2018-11-04T13:46:45.596Z,41.93
2018-11-04T13:49:14.200Z,39.87
2018-11-04T13:51:42.674Z,41.70
2018-11-04T13:54:11.171Z,40.00
2018-11-04T13:56:39.684Z,38.87
2018-11-04T13:59:08.187Z,40.27
2018-11-04T14:01:36.718Z,42.13
2018-11-04T14:04:06.027Z,42.67
2018-11-04T14:06:34.530Z,44.60
2018-11-04T14:09:05.460Z,43.03
2018-11-04T14:11:33.988Z,43.23
2018-11-04T14:14:03.183Z,40.50
2018-11-04T14:16:32.163Z,41.10
2018-11-04T14:19:02.039Z,42.10
2018-11-04T14:21:31.094Z,43.10
2018-11-04T14:24:02.346Z,41.80
2018-11-04T14:26:30.858Z,41.90
2018-11-04T14:29:00.001Z,41.77
2018-11-04T14:31:28.505Z,41.07
2018-11-04T14:33:57.011Z,39.20
2018-11-04T14:36:25.548Z,43.07
2018-11-04T14:38:54.034Z,43.60
2018-11-04T14:41:22.566Z,38.33
2018-11-04T14:43:51.062Z,41.13
2018-11-04T14:46:19.591Z,39.80
2018-11-04T14:48:48.146Z,41.00
2018-11-04T14:51:16.643Z,40.87
2018-11-04T14:53:45.225Z,42.33
2018-11-04T14:56:13.719Z,37.90
2018-11-04T14:58:50.214Z,38.00
2018-11-04T15:01:18.762Z,38.10
2018-11-04T15:03:47.298Z,36.53
2018-11-04T15:06:15.814Z,37.90
2018-11-04T15:08:44.334Z,38.17
2018-11-04T15:11:12.931Z,38.33
2018-11-04T15:13:41.962Z,33.10
2018-11-04T15:16:10.462Z,36.43
2018-11-04T15:18:39.012Z,35.43
2018-11-04T15:21:07.527Z,34.13
2018-11-04T15:23:36.038Z,44.33
2018-11-04T15:26:04.575Z,41.03
2018-11-04T15:28:33.098Z,37.70
2018-11-04T15:31:01.656Z,40.23
2018-11-04T15:33:30.203Z,43.27
2018-11-04T15:36:11.134Z,40.80
2018-11-04T15:38:39.684Z,35.73
2018-11-04T15:41:08.215Z,35.87
2018-11-04T15:43:36.757Z,37.97
2018-11-04T15:46:05.338Z,36.70
2018-11-04T15:48:33.885Z,34.20
2018-11-04T15:51:02.447Z,34.93
2018-11-04T15:53:30.971Z,37.13
2018-11-04T15:55:59.494Z,39.23
2018-11-04T15:58:27.991Z,35.20
2018-11-04T16:00:56.531Z,38.53
2018-11-04T16:03:31.582Z,36.40
2018-11-04T16:06:00.151Z,34.60
2018-11-04T16:08:28.675Z,30.60
2018-11-04T16:10:57.207Z,32.00
2018-11-04T16:13:25.757Z,31.90
2018-11-04T16:15:54.282Z,31.37
2018-11-04T16:18:23.037Z,30.10
2018-11-04T16:20:51.445Z,29.13
2018-11-04T16:23:19.939Z,28.93
2018-11-04T16:25:48.459Z,30.30
2018-11-04T16:28:16.964Z,29.03
2018-11-04T16:30:45.478Z,33.60
2018-11-04T16:33:14.026Z,29.97
2018-11-04T16:35:42.507Z,32.70
2018-11-04T16:38:11.102Z,31.67
2018-11-04T16:40:39.633Z,33.20
2018-11-04T16:43:08.180Z,33.83
2018-11-04T16:45:36.835Z,35.90
2018-11-04T16:48:05.610Z,33.97
2018-11-04T16:50:34.145Z,31.37
2018-11-04T16:53:02.673Z,26.17
2018-11-04T16:55:31.351Z,28.00
2018-11-04T16:57:59.847Z,29.57
2018-11-04T17:00:28.366Z,28.07
2018-11-04T17:02:57.692Z,32.30
2018-11-04T17:05:26.363Z,36.60
2018-11-04T17:07:54.750Z,37.20
2018-11-04T17:10:23.403Z,29.50
2018-11-04T17:12:51.914Z,29.17
2018-11-04T17:15:20.410Z,44.60
2018-11-04T17:17:48.970Z,32.40
2018-11-04T17:20:18.526Z,29.70
2018-11-04T17:22:47.471Z,25.60
2018-11-04T17:25:15.954Z,25.67
2018-11-04T17:27:44.589Z,24.60
2018-11-04T17:30:15.427Z,24.00
2018-11-04T17:32:44.431Z,26.37
2018-11-04T17:38:05.243Z,31.77
2018-11-04T17:40:33.751Z,26.20
2018-11-04T17:43:02.444Z,35.93
2018-11-04T17:45:31.006Z,26.60
2018-11-04T17:47:59.517Z,27.27
2018-11-04T17:50:28.034Z,23.03
2018-11-04T17:52:56.531Z,25.03
2018-11-04T17:55:34.511Z,28.07
2018-11-04T17:58:03.042Z,32.50
2018-11-04T18:00:31.558Z,30.40
2018-11-04T18:03:00.119Z,33.40
2018-11-04T18:05:28.730Z,29.43
2018-11-04T18:07:57.647Z,28.87
2018-11-04T18:10:26.480Z,27.90
2018-11-04T18:12:54.994Z,29.73
2018-11-04T18:15:23.518Z,31.00
2018-11-04T18:17:52.047Z,35.53
2018-11-04T18:20:20.565Z,42.60
2018-11-04T18:22:49.068Z,99.50
2018-11-04T18:25:17.891Z,87.77
2018-11-04T18:27:46.649Z,78.10
2018-11-04T18:30:16.253Z,47.00
2018-11-04T18:32:45.484Z,43.00
2018-11-04T18:35:17.058Z,36.20
2018-11-04T18:37:45.565Z,35.20
2018-11-04T18:40:15.638Z,36.67
2018-11-04T18:42:44.951Z,28.70
2018-11-04T18:45:14.866Z,25.33
2018-11-04T18:47:43.758Z,24.73
2018-11-04T18:50:13.446Z,29.93
2018-11-04T18:52:41.984Z,28.63
2018-11-04T18:55:11.702Z,29.17
2018-11-04T18:57:40.866Z,27.47
2018-11-04T19:00:11.938Z,25.13
2018-11-04T19:02:40.471Z,24.53
2018-11-04T19:05:09.742Z,26.50
2018-11-04T19:07:38.664Z,23.17
2018-11-04T19:10:09.224Z,23.70
2018-11-04T19:12:37.849Z,20.47
2018-11-04T19:15:06.857Z,19.87
2018-11-04T19:17:35.713Z,22.03
2018-11-04T19:20:04.600Z,22.57
2018-11-04T19:22:33.195Z,24.33
2018-11-04T19:25:02.141Z,25.90
2018-11-04T19:27:30.742Z,28.50
2018-11-04T19:29:59.268Z,33.03
2018-11-04T19:32:27.759Z,33.17
2018-11-04T19:34:56.834Z,29.30
2018-11-04T19:37:25.683Z,30.23
2018-11-04T19:39:54.082Z,29.83
2018-11-04T19:42:23.012Z,28.83
2018-11-04T19:44:52.043Z,38.43
2018-11-04T19:47:20.557Z,50.40
2018-11-04T19:49:49.219Z,48.83
2018-11-04T19:52:17.718Z,52.83
2018-11-04T19:54:46.370Z,52.73
2018-11-04T19:57:15.079Z,50.87
2018-11-04T19:59:43.586Z,43.27
2018-11-04T20:02:12.274Z,36.50
2018-11-04T20:04:41.206Z,37.63
2018-11-04T20:07:09.726Z,37.90
2018-11-04T20:09:38.207Z,37.47
2018-11-04T20:12:10.855Z,34.00
2018-11-04T20:14:39.341Z,26.60
2018-11-04T20:17:07.862Z,24.03
2018-11-04T20:19:41.697Z,27.63
2018-11-04T20:22:10.012Z,25.47
2018-11-04T20:24:43.666Z,28.50
2018-11-04T20:27:12.169Z,25.90
2018-11-04T20:29:40.690Z,23.50
2018-11-04T20:32:14.655Z,26.10
2018-11-04T20:34:43.202Z,23.83
2018-11-04T20:37:11.706Z,23.90
2018-11-04T20:39:45.420Z,21.00
2018-11-04T20:42:13.948Z,23.70
2018-11-04T20:44:46.340Z,24.77
2018-11-04T20:47:15.481Z,26.87
2018-11-04T20:49:49.317Z,26.83
2018-11-04T20:52:18.410Z,26.60
2018-11-04T20:54:47.311Z,25.10
2018-11-04T20:57:21.007Z,24.67
2018-11-04T20:59:49.503Z,23.13
2018-11-04T21:02:19.059Z,24.20
2018-11-04T21:04:47.452Z,26.50
2018-11-04T21:07:15.978Z,26.40
2018-11-04T21:09:44.558Z,27.77
2018-11-04T21:12:13.003Z,25.77
2018-11-04T21:14:41.510Z,25.80
2018-11-04T21:17:10.007Z,24.13
2018-11-04T21:19:38.674Z,28.20
2018-11-04T21:22:09.879Z,28.80
2018-11-04T21:24:38.738Z,28.27
2018-11-04T21:27:07.691Z,27.40
2018-11-04T21:29:37.333Z,25.43
2018-11-04T21:32:06.158Z,27.57
2018-11-04T21:34:34.722Z,24.83
2018-11-04T21:37:04.977Z,24.87
2018-11-04T21:39:33.501Z,24.20
2018-11-04T21:42:02.260Z,23.63
2018-11-04T21:44:30.936Z,29.30
2018-11-04T21:46:59.368Z,26.30
2018-11-04T21:49:27.856Z,25.97
2018-11-04T21:51:56.352Z,25.10
2018-11-04T21:54:24.929Z,23.13
2018-11-04T21:56:53.459Z,22.93
2018-11-04T21:59:21.955Z,19.73
2018-11-04T22:01:50.459Z,22.87
2018-11-04T22:04:19.055Z,33.03
2018-11-04T22:06:48.103Z,40.07
2018-11-04T22:09:16.648Z,36.97
2018-11-04T22:11:45.150Z,30.80
2018-11-04T22:14:13.762Z,29.53
2018-11-04T22:16:42.259Z,25.83
2018-11-04T22:19:10.767Z,21.20
2018-11-04T22:21:39.266Z,20.53
2018-11-04T22:24:07.771Z,18.37
2018-11-04T22:26:36.332Z,17.83
2018-11-04T22:29:05.045Z,18.17
2018-11-04T22:31:33.551Z,18.10
2018-11-04T22:34:02.703Z,17.37
2018-11-04T22:36:31.255Z,19.10
2018-11-04T22:39:00.359Z,17.97
2018-11-04T22:41:28.851Z,18.50
2018-11-04T22:43:57.371Z,18.33
2018-11-04T22:46:25.875Z,19.20
2018-11-04T22:48:54.378Z,20.73
2018-11-04T22:51:22.899Z,22.50
2018-11-04T22:53:51.392Z,23.47
2018-11-04T22:56:20.013Z,20.80
2018-11-04T22:58:48.885Z,20.77
2018-11-04T23:01:17.423Z,18.60
2018-11-04T23:03:45.954Z,20.13
2018-11-04T23:06:14.461Z,20.57
2018-11-04T23:08:42.968Z,21.70
2018-11-04T23:11:11.479Z,23.80
2018-11-04T23:13:39.987Z,24.67
2018-11-04T23:16:08.490Z,22.50
2018-11-04T23:18:37.042Z,20.87
2018-11-04T23:21:05.876Z,19.20
2018-11-04T23:23:34.382Z,21.47
2018-11-04T23:26:02.875Z,19.13
2018-11-04T23:28:31.410Z,21.03
2018-11-04T23:30:59.922Z,19.27
2018-11-04T23:33:28.432Z,18.90
2018-11-04T23:35:56.950Z,17.60
2018-11-04T23:38:25.454Z,19.70
2018-11-04T23:40:53.954Z,20.60
2018-11-04T23:43:22.838Z,18.37
2018-11-04T23:45:51.347Z,20.50
2018-11-04T23:48:19.966Z,19.17
2018-11-04T23:50:48.515Z,17.20
2018-11-04T23:53:17.025Z,19.13
2018-11-04T23:55:45.543Z,18.77
2018-11-04T23:58:14.106Z,20.53
